Bookmark and Share
Track history (hours):
 

Haramachi Maru

Last reported at 2014-Apr-12 08:31 UTC. Time now 2014-Apr-18 18:25 UTC.
Position S 26°06' E 153°53'.

Length 239.8 m; beam 43 m.

Type: Cargo ship. MMSI: 431106000.

NotesDate/timePositionNaut miles runAvg speedWind from/ knotsBaromVisibWave heightAir tempDewpointWater temp
2014-Apr-12 08:31S 26°06' E 153°53'3110.3
2014-Apr-12 05:34S 26°36' E 153°52'1212.1
2014-Apr-12 04:34S 26°48' E 153°52'1010.0
2014-Apr-12 03:32S 26°59' E 153°52'37 9.2
2014-Apr-11 23:33S 27°35' E 153°51'9 9.1
2014-Apr-11 22:32S 27°45' E 153°50'9 9.0
2014-Apr-11 21:33S 27°53' E 153°50'9 9.0
2014-Apr-11 20:33S 28°02' E 153°50'9 8.9
2014-Apr-11 19:30S 28°12' E 153°50'271 9.1
2014-Apr-10 13:33S 32°36' E 152°38'1010.2
2014-Apr-10 12:34S 32°44' E 152°30'10 9.9
2014-Apr-10 11:34S 32°50' E 152°21'1111.2
2014-Apr-10 10:33S 32°53' E 152°08'1111.1
2014-Apr-10 09:33S 32°55' E 151°55'7 7.2
2014-Apr-10 08:33S 32°55' E 151°47'2 1.1
2014-Apr-10 06:31S 32°53' E 151°46'0 0.0
2014-Apr-10 05:25S 32°53' E 151°46'0 0.0
2014-Apr-10 04:31S 32°53' E 151°46'0 0.0
2014-Apr-10 03:31S 32°53' E 151°46'0 0.0
2014-Apr-10 02:31S 32°53' E 151°46'0 0.0
2014-Apr-10 01:31S 32°53' E 151°46'0 0.0
2014-Apr-10 00:31S 32°53' E 151°46'0 0.0
2014-Apr-09 23:31S 32°53' E 151°46'0 0.0
2014-Apr-09 22:31S 32°53' E 151°46'0 0.0
2014-Apr-09 21:25S 32°53' E 151°46'0 0.0
2014-Apr-09 20:31S 32°53' E 151°46'0 0.0
2014-Apr-09 19:31S 32°53' E 151°46'0 0.0
2014-Apr-09 18:31S 32°53' E 151°46'0 0.0
2014-Apr-09 17:31S 32°53' E 151°46'0 0.0
2014-Apr-09 16:31S 32°53' E 151°46'0 0.0
2014-Apr-09 15:31S 32°53' E 151°46'0 0.0
2014-Apr-09 14:31S 32°53' E 151°46'0 0.0
2014-Apr-09 13:31S 32°53' E 151°46'0 0.0
2014-Apr-09 12:31S 32°53' E 151°46'0 0.0
2014-Apr-09 11:31S 32°53' E 151°46'0 0.0
2014-Apr-09 10:31S 32°53' E 151°46'0 0.0
2014-Apr-09 09:31S 32°53' E 151°46'0 0.0
2014-Apr-09 08:31S 32°53' E 151°46'0 0.0
2014-Apr-09 07:31S 32°53' E 151°46'0 0.0
2014-Apr-09 06:31S 32°53' E 151°46'0 0.0
2014-Apr-09 05:31S 32°53' E 151°46'0 0.0
2014-Apr-09 04:31S 32°53' E 151°46'0 0.0
2014-Apr-09 03:31S 32°53' E 151°46'0 0.0
2014-Apr-09 02:31S 32°53' E 151°46'0 0.0
2014-Apr-09 01:31S 32°53' E 151°46'0 0.0
2014-Apr-09 00:31S 32°53' E 151°46'0 0.0
2014-Apr-08 23:31S 32°53' E 151°46'0 0.0
2014-Apr-08 22:25S 32°53' E 151°46'0 0.0
2014-Apr-08 21:31S 32°53' E 151°46'2 2.5
2014-Apr-08 20:33S 32°55' E 151°47'5 5.1
2014-Apr-08 19:33S 32°58' E 151°52'5 4.5
2014-Apr-08 18:33S 33°02' E 151°55'1 1.0
2014-Apr-08 17:33S 33°03' E 151°56'1 1.0
2014-Apr-08 16:33S 33°04' E 151°56'2 2.4
2014-Apr-08 15:33S 33°04' E 151°53'1 0.9
2014-Apr-08 14:33S 33°05' E 151°54'1 1.5
2014-Apr-08 13:33S 33°06' E 151°55'1 1.4
2014-Apr-08 12:33S 33°06' E 151°57'1 1.5
2014-Apr-08 11:33S 33°06' E 151°58'4 4.0
2014-Apr-08 10:33S 33°02' E 151°58'9 9.0
2014-Apr-08 09:33S 32°58' E 152°08'1313.3
2014-Apr-08 08:33S 32°51' E 152°22'1313.2
2014-Apr-08 07:33S 32°41' E 152°32'27511.9
2014-Apr-07 08:27S 28°14' E 153°49'1011.1
2014-Apr-07 07:33S 28°05' E 153°50'1010.2
2014-Apr-07 06:33S 27°54' E 153°50'10 9.8
2014-Apr-07 05:33S 27°45' E 153°50'1010.2
2014-Apr-07 04:33S 27°34' E 153°51'2511.2
2014-Apr-07 02:19S 27°09' E 153°51'  

Dump ship's entire track history

sailing weather and tide predictions

Haramachi Maru — JBML — position and weather